createdAt,value
2019-05-05T00:02:05.910Z,12.10
2019-05-05T00:04:37.627Z,12.10
2019-05-05T00:07:07.738Z,11.90
2019-05-05T00:09:37.776Z,12.00
2019-05-05T00:12:09.527Z,12.00
2019-05-05T00:14:41.175Z,12.00
2019-05-05T00:17:18.826Z,12.10
2019-05-05T00:19:48.899Z,12.10
2019-05-05T00:22:19.012Z,12.20
2019-05-05T00:24:48.951Z,12.20
2019-05-05T00:27:19.122Z,12.30
2019-05-05T00:29:49.159Z,12.30
2019-05-05T00:32:19.211Z,12.30
2019-05-05T00:34:49.295Z,12.30
2019-05-05T00:37:19.336Z,12.20
2019-05-05T00:39:49.455Z,12.20
2019-05-05T00:42:19.537Z,12.20
2019-05-05T00:44:49.651Z,12.10
2019-05-05T00:47:37.303Z,12.20
2019-05-05T00:50:10.930Z,12.20
2019-05-05T00:55:25.474Z,12.20
2019-05-05T00:57:55.618Z,12.10
2019-05-05T01:00:44.401Z,12.20
2019-05-05T01:03:15.340Z,12.20
2019-05-05T01:06:04.422Z,12.20
2019-05-05T01:08:35.230Z,12.20
2019-05-05T01:11:05.484Z,12.10
2019-05-05T01:13:35.499Z,12.10
2019-05-05T01:16:05.607Z,12.20
2019-05-05T01:18:35.722Z,12.10
2019-05-05T01:21:05.899Z,12.10
2019-05-05T01:23:36.019Z,12.10
2019-05-05T01:26:06.266Z,12.00
2019-05-05T01:28:36.383Z,11.90
2019-05-05T01:31:08.123Z,11.80
2019-05-05T01:33:44.788Z,11.80
2019-05-05T01:36:14.963Z,11.80
2019-05-05T01:38:47.627Z,11.80
2019-05-05T01:41:19.339Z,11.80
2019-05-05T01:43:49.438Z,11.80
2019-05-05T01:46:19.543Z,11.80
2019-05-05T01:48:49.590Z,11.80
2019-05-05T01:51:19.663Z,11.80
2019-05-05T01:53:54.340Z,11.90
2019-05-05T01:56:24.692Z,11.90
2019-05-05T01:58:55.076Z,11.90
2019-05-05T02:01:25.155Z,11.90
2019-05-05T02:03:55.347Z,11.90
2019-05-05T02:06:25.427Z,11.80
2019-05-05T02:08:55.542Z,11.80
2019-05-05T02:11:25.546Z,11.70
2019-05-05T02:13:55.651Z,11.70
2019-05-05T02:16:25.847Z,11.70
2019-05-05T02:18:55.774Z,11.70
2019-05-05T02:21:25.902Z,11.60
2019-05-05T02:23:55.906Z,11.60
2019-05-05T02:26:25.954Z,11.50
2019-05-05T02:28:57.627Z,11.50
2019-05-05T02:31:41.334Z,11.50
2019-05-05T02:34:11.718Z,11.50
2019-05-05T02:36:45.751Z,11.50
2019-05-05T02:39:15.928Z,11.50
2019-05-05T02:41:46.347Z,11.50
2019-05-05T02:44:16.621Z,11.50
2019-05-05T02:46:48.835Z,11.50
2019-05-05T02:49:20.087Z,11.50
2019-05-05T02:51:51.404Z,11.50
2019-05-05T02:54:24.833Z,11.50
2019-05-05T02:56:55.240Z,11.50
2019-05-05T02:59:29.919Z,11.40
2019-05-05T03:02:04.914Z,11.40
2019-05-05T03:04:35.107Z,11.30
2019-05-05T03:07:05.993Z,11.30
2019-05-05T03:09:36.902Z,11.30
2019-05-05T03:12:10.875Z,11.30
2019-05-05T03:14:40.518Z,11.20
2019-05-05T03:17:14.297Z,11.20
2019-05-05T03:19:45.187Z,11.20
2019-05-05T03:22:15.561Z,10.90
2019-05-05T03:24:46.384Z,10.80
2019-05-05T03:27:16.467Z,10.80
2019-05-05T03:29:47.380Z,10.70
2019-05-05T03:32:17.496Z,10.60
2019-05-05T03:34:47.871Z,10.60
2019-05-05T03:37:18.091Z,10.50
2019-05-05T03:39:50.475Z,10.50
2019-05-05T03:42:24.361Z,10.50
2019-05-05T03:44:58.775Z,10.60
2019-05-05T03:47:29.155Z,10.60
2019-05-05T03:49:59.368Z,10.60
2019-05-05T03:52:29.647Z,10.70
2019-05-05T03:55:03.657Z,10.70
2019-05-05T03:57:34.091Z,10.70
2019-05-05T04:00:05.975Z,10.70
2019-05-05T04:02:37.786Z,10.60
2019-05-05T04:05:14.577Z,10.70
2019-05-05T04:07:45.171Z,10.70
2019-05-05T04:10:15.255Z,10.80
2019-05-05T04:12:45.635Z,10.80
2019-05-05T04:15:15.720Z,10.90
2019-05-05T04:17:50.233Z,10.80
2019-05-05T04:20:24.070Z,10.80
2019-05-05T04:22:54.246Z,10.80
2019-05-05T04:25:25.110Z,10.80
2019-05-05T04:27:55.251Z,10.80
2019-05-05T04:30:25.291Z,10.80
2019-05-05T04:32:55.306Z,10.90
2019-05-05T04:35:25.342Z,10.90
2019-05-05T04:37:55.478Z,10.90
2019-05-05T04:40:25.514Z,10.90
2019-05-05T04:42:55.546Z,10.90
2019-05-05T04:45:25.598Z,10.90
2019-05-05T04:47:59.812Z,11.00
2019-05-05T04:50:40.670Z,11.00
2019-05-05T04:53:13.528Z,11.10
2019-05-05T04:55:44.254Z,11.10
2019-05-05T04:58:14.291Z,11.10
2019-05-05T05:00:44.466Z,11.20
2019-05-05T05:03:31.038Z,11.20
2019-05-05T05:06:04.149Z,11.20
2019-05-05T05:08:34.250Z,11.20
2019-05-05T05:11:04.299Z,11.30
2019-05-05T05:13:34.845Z,11.30
2019-05-05T05:16:04.989Z,11.20
2019-05-05T05:18:34.978Z,11.20
2019-05-05T05:21:04.999Z,11.20
2019-05-05T05:23:35.055Z,11.10
2019-05-05T05:26:05.256Z,11.00
2019-05-05T05:28:35.330Z,11.00
2019-05-05T05:31:05.443Z,11.00
2019-05-05T05:33:35.490Z,10.90
2019-05-05T05:36:05.527Z,10.80
2019-05-05T05:38:35.550Z,10.70
2019-05-05T05:41:10.220Z,10.70
2019-05-05T05:43:50.414Z,10.60
2019-05-05T05:46:37.042Z,10.60
2019-05-05T05:49:13.516Z,10.60
2019-05-05T05:51:44.686Z,10.60
2019-05-05T05:54:15.663Z,10.60
2019-05-05T05:56:46.679Z,10.50
2019-05-05T05:59:16.619Z,10.60
2019-05-05T06:01:46.664Z,10.50
2019-05-05T06:04:16.708Z,10.50
2019-05-05T06:06:46.784Z,10.50
2019-05-05T06:09:16.820Z,10.50
2019-05-05T06:11:46.895Z,10.50
2019-05-05T06:14:17.021Z,10.40
2019-05-05T06:16:47.096Z,10.30
2019-05-05T06:19:17.214Z,10.30
2019-05-05T06:21:47.222Z,10.30
2019-05-05T06:24:17.208Z,10.20
2019-05-05T06:26:47.319Z,10.10
2019-05-05T06:29:17.367Z,10.10
2019-05-05T06:31:47.338Z,10.20
2019-05-05T06:34:17.495Z,10.20
2019-05-05T06:36:47.531Z,10.30
2019-05-05T06:39:17.610Z,10.30
2019-05-05T06:41:49.222Z,10.30
2019-05-05T06:44:33.852Z,10.20
2019-05-05T06:47:11.194Z,10.20
2019-05-05T06:49:41.167Z,10.10
2019-05-05T06:52:11.251Z,10.00
2019-05-05T06:54:41.222Z,10.00
2019-05-05T06:57:13.501Z,10.00
2019-05-05T06:59:43.853Z,9.90
2019-05-05T07:02:14.666Z,9.80
2019-05-05T07:04:45.064Z,9.70
2019-05-05T07:07:15.075Z,9.80
2019-05-05T07:09:45.031Z,9.70
2019-05-05T07:12:15.137Z,9.70
2019-05-05T07:14:45.227Z,9.60
2019-05-05T07:17:15.218Z,9.50
2019-05-05T07:19:46.894Z,9.50
2019-05-05T07:22:17.805Z,9.50
2019-05-05T07:24:47.907Z,9.60
2019-05-05T07:27:17.911Z,9.60
2019-05-05T07:29:47.871Z,9.80
2019-05-05T07:32:17.975Z,9.80
2019-05-05T07:34:54.489Z,9.90
2019-05-05T07:37:24.331Z,10.00
2019-05-05T07:39:54.756Z,10.00
2019-05-05T07:42:24.799Z,10.00
2019-05-05T07:44:54.859Z,10.00
2019-05-05T07:47:24.890Z,10.00
2019-05-05T07:49:55.664Z,10.00
2019-05-05T07:52:47.384Z,10.00
2019-05-05T07:55:14.371Z,10.10
2019-05-05T07:57:44.168Z,10.20
2019-05-05T08:00:14.905Z,10.30
2019-05-05T08:02:45.045Z,10.40
2019-05-05T08:05:15.164Z,10.40
2019-05-05T08:07:45.250Z,10.40
2019-05-05T08:10:15.651Z,10.30
2019-05-05T08:12:45.735Z,10.40
2019-05-05T08:15:17.903Z,10.40
2019-05-05T08:18:06.001Z,10.40
2019-05-05T08:20:40.861Z,10.50
2019-05-05T08:23:28.574Z,10.50
2019-05-05T08:25:51.546Z,10.50
2019-05-05T08:28:23.701Z,10.50
2019-05-05T08:30:55.413Z,10.50
2019-05-05T08:33:25.499Z,10.50
2019-05-05T08:35:55.495Z,10.50
2019-05-05T08:38:26.815Z,10.50
2019-05-05T08:40:56.896Z,10.60
2019-05-05T08:43:27.048Z,10.60
2019-05-05T08:45:57.339Z,10.60
2019-05-05T08:48:27.460Z,10.60
2019-05-05T08:50:57.526Z,10.70
2019-05-05T08:53:41.179Z,10.70
2019-05-05T08:55:59.335Z,10.80
2019-05-05T08:58:29.443Z,10.90
2019-05-05T09:00:59.423Z,11.00
2019-05-05T09:03:29.608Z,11.00
2019-05-05T09:05:59.735Z,11.00
2019-05-05T09:08:29.847Z,11.10
2019-05-05T09:10:59.903Z,11.10
2019-05-05T09:13:29.980Z,11.20
2019-05-05T09:16:00.022Z,11.20
2019-05-05T09:18:31.415Z,11.20
2019-05-05T09:21:01.418Z,11.20
2019-05-05T09:23:34.709Z,11.30
2019-05-05T09:26:09.278Z,11.30
2019-05-05T09:28:44.587Z,11.40
2019-05-05T09:31:14.774Z,11.50
2019-05-05T09:33:44.847Z,11.50
2019-05-05T09:36:14.783Z,11.60
2019-05-05T09:38:45.135Z,11.60
2019-05-05T09:41:16.103Z,11.70
2019-05-05T09:43:46.115Z,11.70
2019-05-05T09:46:16.230Z,11.80
2019-05-05T09:48:46.235Z,11.90
2019-05-05T09:51:16.284Z,12.00
2019-05-05T09:53:46.294Z,12.00
2019-05-05T09:56:16.423Z,12.10
2019-05-05T09:58:46.531Z,12.10
2019-05-05T10:01:16.812Z,12.20
2019-05-05T10:03:46.921Z,12.30
2019-05-05T10:06:17.035Z,12.30
2019-05-05T10:08:47.087Z,12.40
2019-05-05T10:11:17.344Z,12.40
2019-05-05T10:13:47.471Z,12.50
2019-05-05T10:16:17.523Z,12.50
2019-05-05T10:18:47.563Z,12.50
2019-05-05T10:21:17.928Z,12.60
2019-05-05T10:23:49.551Z,12.60
2019-05-05T10:26:19.663Z,12.70
2019-05-05T10:28:49.732Z,12.70
2019-05-05T10:31:19.840Z,12.80
2019-05-05T10:33:53.971Z,12.80
2019-05-05T10:36:24.556Z,12.90
2019-05-05T10:39:04.301Z,13.00
2019-05-05T10:41:34.542Z,13.00
2019-05-05T10:44:04.914Z,13.00
2019-05-05T10:46:34.914Z,13.00
2019-05-05T10:49:05.023Z,13.00
2019-05-05T10:51:35.072Z,13.00
2019-05-05T10:54:05.159Z,13.10
2019-05-05T10:56:35.203Z,13.00
2019-05-05T10:59:06.252Z,13.00
2019-05-05T11:01:36.219Z,13.00
2019-05-05T11:04:06.259Z,13.00
2019-05-05T11:06:36.391Z,13.00
2019-05-05T11:09:08.101Z,13.00
2019-05-05T11:11:38.211Z,13.10
2019-05-05T11:14:09.495Z,13.00
2019-05-05T11:16:39.584Z,13.00
2019-05-05T11:19:09.761Z,12.90
2019-05-05T11:21:39.768Z,12.90
2019-05-05T11:24:09.886Z,12.90
2019-05-05T17:25:14.347Z,9.50
2019-05-05T17:27:48.511Z,9.40
2019-05-05T17:30:17.352Z,9.40
2019-05-05T17:32:47.493Z,9.40
2019-05-05T17:35:17.575Z,9.40
2019-05-05T17:37:47.722Z,9.50
2019-05-05T17:40:28.697Z,9.50
2019-05-05T17:43:25.062Z,9.50
2019-05-05T17:45:57.335Z,9.60
2019-05-05T17:48:46.851Z,9.60
2019-05-05T17:51:23.479Z,9.70
2019-05-05T17:53:58.065Z,9.60
2019-05-05T17:56:28.095Z,9.70
2019-05-05T17:58:58.249Z,9.70
2019-05-05T18:01:28.447Z,9.70
2019-05-05T18:03:58.795Z,9.60
2019-05-05T18:06:30.466Z,9.70
2019-05-05T18:09:20.464Z,9.70
2019-05-05T18:11:53.553Z,9.80
2019-05-05T18:14:25.334Z,9.80
2019-05-05T18:16:55.911Z,9.70
2019-05-05T18:19:25.998Z,9.70
2019-05-05T18:21:57.507Z,9.70
2019-05-05T18:24:28.793Z,9.70
2019-05-05T18:26:58.921Z,9.70
2019-05-05T18:29:28.991Z,9.60
2019-05-05T18:31:59.255Z,9.60
2019-05-05T18:34:30.212Z,9.60
2019-05-05T18:37:16.659Z,9.60
2019-05-05T18:39:46.780Z,9.60
2019-05-05T18:42:21.658Z,9.60
2019-05-05T18:44:54.056Z,9.50
2019-05-05T18:47:25.084Z,9.50
2019-05-05T18:49:55.401Z,9.50
2019-05-05T18:52:47.152Z,9.50
2019-05-05T18:55:16.518Z,9.40
2019-05-05T18:57:46.571Z,9.40
2019-05-05T19:00:18.721Z,9.40
2019-05-05T19:02:53.697Z,9.40
2019-05-05T19:05:25.492Z,9.40
2019-05-05T19:08:10.481Z,9.30
2019-05-05T19:10:40.514Z,9.20
2019-05-05T19:13:10.603Z,9.30
2019-05-05T19:15:40.759Z,9.40
2019-05-05T19:18:10.895Z,9.40
2019-05-05T19:20:57.711Z,9.40
2019-05-05T19:23:27.940Z,9.30
2019-05-05T19:28:44.274Z,9.20
2019-05-05T19:31:14.016Z,9.10
2019-05-05T19:33:45.697Z,9.10
2019-05-05T19:36:16.023Z,9.20
2019-05-05T19:38:49.908Z,9.20
2019-05-05T19:41:20.111Z,9.20
2019-05-05T19:43:54.764Z,9.10
2019-05-05T19:46:27.017Z,9.00
2019-05-05T19:49:17.078Z,9.00
2019-05-05T19:51:47.847Z,9.10
2019-05-05T19:54:17.963Z,9.00
2019-05-05T19:56:48.653Z,9.00
2019-05-05T19:59:18.855Z,9.10
2019-05-05T20:01:48.938Z,9.10
2019-05-05T20:04:19.063Z,9.00
2019-05-05T20:06:49.134Z,9.10
2019-05-05T20:09:19.306Z,9.20
2019-05-05T20:11:49.484Z,9.10
2019-05-05T20:17:04.423Z,9.20
2019-05-05T20:19:37.947Z,9.00
2019-05-05T20:22:08.064Z,9.00
2019-05-05T20:24:38.135Z,9.00
2019-05-05T20:27:08.451Z,9.00
2019-05-05T20:29:38.506Z,9.00
2019-05-05T20:32:08.634Z,8.90
2019-05-05T20:34:40.316Z,9.00
2019-05-05T20:37:14.093Z,9.00
2019-05-05T20:39:45.143Z,9.10
2019-05-05T20:42:15.211Z,9.10
2019-05-05T20:44:45.366Z,9.10
2019-05-05T20:47:15.534Z,9.10
2019-05-05T20:49:45.583Z,9.10
2019-05-05T20:52:31.662Z,9.10
2019-05-05T20:55:01.629Z,9.10
2019-05-05T20:57:31.858Z,9.10
2019-05-05T21:00:01.868Z,9.20
2019-05-05T21:02:53.828Z,9.10
2019-05-05T21:05:24.455Z,9.10
2019-05-05T21:07:54.566Z,9.10
2019-05-05T21:10:24.647Z,9.00
2019-05-05T21:12:55.719Z,9.00
2019-05-05T21:15:25.750Z,8.90
2019-05-05T21:17:55.783Z,9.00
2019-05-05T21:20:25.995Z,9.00
2019-05-05T21:23:03.862Z,9.00
2019-05-05T21:25:38.935Z,9.00
2019-05-05T21:28:09.087Z,9.10
2019-05-05T21:30:41.555Z,9.20
2019-05-05T21:33:10.742Z,9.20
2019-05-05T21:35:40.778Z,9.20
2019-05-05T21:38:10.719Z,9.10
2019-05-05T21:40:43.902Z,9.10
2019-05-05T21:43:32.751Z,9.10
2019-05-05T21:46:04.445Z,9.10
2019-05-05T21:48:34.728Z,9.10
2019-05-05T21:51:18.577Z,9.20
2019-05-05T21:53:53.285Z,9.20
2019-05-05T21:56:30.710Z,9.20
2019-05-05T21:59:00.783Z,9.10
2019-05-05T22:01:38.764Z,8.80
2019-05-05T22:04:04.999Z,8.90
2019-05-05T22:06:35.106Z,8.80
2019-05-05T22:09:06.949Z,8.80
2019-05-05T22:11:38.651Z,8.80
2019-05-05T22:14:08.750Z,8.80
2019-05-05T22:16:38.824Z,8.70
2019-05-05T22:19:23.990Z,8.80
2019-05-05T22:21:55.603Z,8.70
2019-05-05T22:24:25.711Z,8.60
2019-05-05T22:26:55.786Z,8.60
2019-05-05T22:29:45.103Z,8.60
2019-05-05T22:32:15.439Z,8.70
2019-05-05T22:34:45.510Z,8.70
2019-05-05T22:37:15.520Z,8.70
2019-05-05T22:39:45.479Z,8.70
2019-05-05T22:42:15.738Z,8.70
2019-05-05T22:44:46.063Z,8.60
2019-05-05T22:49:58.791Z,8.60
2019-05-05T22:52:28.874Z,8.70
2019-05-05T22:55:00.379Z,8.70
2019-05-05T22:57:30.572Z,8.70
2019-05-05T23:00:00.580Z,8.80
2019-05-05T23:02:44.152Z,8.70
2019-05-05T23:05:34.671Z,8.80
2019-05-05T23:08:05.647Z,8.80
2019-05-05T23:10:36.955Z,8.70
2019-05-05T23:13:07.107Z,8.70
2019-05-05T23:15:38.839Z,8.80
2019-05-05T23:18:10.546Z,8.70
2019-05-05T23:20:53.946Z,8.70
2019-05-05T23:23:41.871Z,8.70
2019-05-05T23:26:16.223Z,8.80
2019-05-05T23:28:46.154Z,8.80
2019-05-05T23:31:16.332Z,8.70
2019-05-05T23:34:05.699Z,8.80
2019-05-05T23:36:35.883Z,8.80
2019-05-05T23:39:07.393Z,8.70
2019-05-05T23:41:37.502Z,8.70
2019-05-05T23:44:23.799Z,8.70
2019-05-05T23:46:54.210Z,8.70
2019-05-05T23:49:24.441Z,8.70
2019-05-05T23:51:54.475Z,8.70
2019-05-05T23:54:24.831Z,8.80
2019-05-05T23:56:55.007Z,8.80
2019-05-05T23:59:25.115Z,8.70
